createdAt,value
2022-07-28T00:00:37.143Z,6.60
2022-07-28T00:03:06.120Z,5.45
2022-07-28T00:05:34.922Z,4.97
2022-07-28T00:08:03.792Z,5.10
2022-07-28T00:10:32.798Z,5.22
2022-07-28T00:13:01.955Z,5.30
2022-07-28T00:15:34.028Z,5.40
2022-07-28T00:18:02.770Z,5.07
2022-07-28T00:20:31.874Z,5.78
2022-07-28T00:23:00.704Z,5.68
2022-07-28T00:25:29.505Z,5.78
2022-07-28T00:27:58.152Z,5.38
2022-07-28T00:30:26.842Z,5.40
2022-07-28T00:32:56.896Z,6.25
2022-07-28T00:35:31.057Z,5.43
2022-07-28T00:38:01.345Z,5.78
2022-07-28T00:40:44.421Z,5.65
2022-07-28T00:43:13.154Z,5.63
2022-07-28T00:45:41.841Z,5.80
2022-07-28T00:48:11.918Z,6.18
2022-07-28T00:50:41.833Z,5.97
2022-07-28T00:53:10.759Z,6.05
2022-07-28T00:56:03.061Z,5.90
2022-07-28T00:58:31.041Z,5.97
2022-07-28T01:00:59.954Z,5.97
2022-07-28T01:03:32.611Z,5.90
2022-07-28T01:06:12.218Z,6.07
2022-07-28T01:09:03.432Z,6.53
2022-07-28T01:11:42.896Z,6.35
2022-07-28T01:14:20.555Z,6.05
2022-07-28T01:16:58.015Z,6.78
2022-07-28T01:19:48.008Z,6.28
2022-07-28T01:22:23.888Z,6.50
2022-07-28T01:25:08.383Z,5.95
2022-07-28T01:27:54.396Z,6.38
2022-07-28T01:30:37.718Z,6.25
2022-07-28T01:33:16.994Z,6.50
2022-07-28T01:35:52.713Z,6.47
2022-07-28T01:38:24.536Z,6.32
2022-07-28T01:40:56.830Z,6.47
2022-07-28T01:43:27.864Z,6.47
2022-07-28T01:46:01.080Z,6.50
2022-07-28T01:48:32.598Z,6.60
2022-07-28T01:51:03.256Z,7.70
2022-07-28T01:53:37.797Z,6.57
2022-07-28T01:56:09.353Z,6.72
2022-07-28T01:58:41.061Z,6.82
2022-07-28T02:01:14.784Z,5.90
2022-07-28T02:03:47.063Z,6.40
2022-07-28T02:06:21.137Z,6.75
2022-07-28T02:08:51.972Z,6.32
2022-07-28T02:11:38.338Z,6.22
2022-07-28T02:14:09.349Z,6.68
2022-07-28T02:16:44.265Z,7.28
2022-07-28T02:19:15.093Z,6.97
2022-07-28T02:21:47.791Z,6.60
2022-07-28T02:24:20.289Z,6.40
2022-07-28T02:26:57.062Z,6.78
2022-07-28T02:29:49.787Z,6.57
2022-07-28T02:32:28.124Z,5.97
2022-07-28T02:35:04.831Z,6.22
2022-07-28T02:37:40.011Z,5.95
2022-07-28T02:40:17.544Z,5.88
2022-07-28T02:42:50.167Z,5.97
2022-07-28T02:45:23.315Z,6.30
2022-07-28T02:50:47.756Z,6.32
2022-07-28T02:53:18.522Z,6.75
2022-07-28T02:55:50.241Z,6.43
2022-07-28T02:58:24.075Z,6.72
2022-07-28T03:00:56.545Z,6.00
2022-07-28T03:03:27.128Z,6.60
2022-07-28T03:05:56.257Z,7.05
2022-07-28T03:08:25.116Z,7.07
2022-07-28T03:11:09.632Z,6.20
2022-07-28T03:13:40.413Z,6.28
2022-07-28T03:16:09.853Z,6.13
2022-07-28T03:18:39.981Z,6.75
2022-07-28T03:21:08.844Z,6.40
2022-07-28T03:23:43.392Z,6.40
2022-07-28T03:26:20.895Z,6.35
2022-07-28T03:28:52.807Z,7.68
2022-07-28T03:31:23.400Z,6.68
2022-07-28T03:33:53.861Z,6.57
2022-07-28T03:36:32.273Z,6.70
2022-07-28T03:39:05.654Z,5.85
2022-07-28T03:41:36.802Z,6.13
2022-07-28T03:44:06.884Z,5.90
2022-07-28T03:46:36.085Z,5.65
2022-07-28T03:49:09.728Z,5.22
2022-07-28T03:51:39.341Z,5.28
2022-07-28T03:54:08.315Z,5.78
2022-07-28T03:56:37.087Z,5.55
2022-07-28T03:59:05.851Z,6.47
2022-07-28T04:01:34.566Z,5.57
2022-07-28T04:04:03.303Z,5.55
2022-07-28T04:06:33.583Z,5.35
2022-07-28T04:09:02.503Z,5.03
2022-07-28T04:11:31.173Z,5.00
2022-07-28T04:13:59.802Z,5.18
2022-07-28T04:16:28.534Z,5.22
2022-07-28T04:18:57.285Z,5.28
2022-07-28T04:21:26.221Z,4.88
2022-07-28T04:24:01.403Z,5.32
2022-07-28T04:26:31.126Z,5.20
2022-07-28T04:28:59.800Z,4.60
2022-07-28T04:31:32.564Z,5.30
2022-07-28T04:34:01.277Z,6.80
2022-07-28T04:36:30.432Z,6.20
2022-07-28T04:39:00.756Z,5.50
2022-07-28T04:41:29.476Z,6.30
2022-07-28T04:43:59.498Z,5.65
2022-07-28T04:46:28.522Z,5.32
2022-07-28T04:48:57.696Z,5.60
2022-07-28T04:51:26.551Z,5.00
2022-07-28T04:53:55.269Z,6.25
2022-07-28T04:56:25.639Z,5.68
2022-07-28T04:58:54.428Z,6.10
2022-07-28T05:01:24.043Z,5.72
2022-07-28T05:03:53.599Z,6.43
2022-07-28T05:06:22.275Z,6.32
2022-07-28T05:08:51.066Z,5.75
2022-07-28T05:11:20.113Z,7.03
2022-07-28T05:13:50.271Z,5.97
2022-07-28T05:16:19.222Z,6.00
2022-07-28T05:18:48.164Z,6.20
2022-07-28T05:21:16.968Z,5.60
2022-07-28T05:23:51.804Z,5.35
2022-07-28T05:26:20.966Z,4.72
2022-07-28T05:28:51.062Z,4.25
2022-07-28T05:31:19.978Z,4.47
2022-07-28T05:33:48.712Z,4.32
2022-07-28T05:36:17.691Z,5.47
2022-07-28T05:38:46.535Z,5.07
2022-07-28T05:41:15.298Z,4.43
2022-07-28T05:43:43.974Z,4.60
2022-07-28T05:46:14.158Z,4.40
2022-07-28T05:48:42.971Z,4.22
2022-07-28T05:51:11.770Z,3.75
2022-07-28T05:53:40.532Z,4.68
2022-07-28T05:56:09.249Z,4.40
2022-07-28T05:58:38.250Z,4.05
2022-07-28T06:01:07.143Z,4.68
2022-07-28T06:03:42.148Z,4.63
2022-07-28T06:06:16.143Z,4.63
2022-07-28T06:08:47.773Z,4.65
2022-07-28T06:11:22.608Z,4.93
2022-07-28T06:13:53.193Z,6.00
2022-07-28T06:16:23.668Z,6.22
2022-07-28T06:18:54.103Z,6.65
2022-07-28T06:21:25.178Z,6.70
2022-07-28T06:23:53.984Z,5.57
2022-07-28T06:26:23.806Z,5.25
2022-07-28T06:28:53.318Z,4.57
2022-07-28T06:31:22.190Z,4.20
2022-07-28T06:33:51.134Z,4.35
2022-07-28T06:36:21.140Z,4.47
2022-07-28T06:38:50.087Z,4.50
2022-07-28T06:41:18.866Z,4.28
2022-07-28T06:43:47.889Z,4.68
2022-07-28T06:46:19.679Z,4.85
2022-07-28T06:48:48.729Z,4.40
2022-07-28T06:51:20.049Z,4.38
2022-07-28T06:53:50.508Z,4.35
2022-07-28T06:56:21.435Z,4.47
2022-07-28T06:58:50.561Z,4.55
2022-07-28T07:01:19.797Z,4.60
2022-07-28T07:03:48.642Z,4.78
2022-07-28T07:06:17.557Z,4.50
2022-07-28T07:08:47.365Z,5.32
2022-07-28T07:11:17.740Z,6.50
2022-07-28T07:13:46.554Z,6.20
2022-07-28T07:16:15.384Z,6.85
2022-07-28T07:18:44.079Z,7.38
2022-07-28T07:21:13.109Z,6.85
2022-07-28T07:23:41.931Z,6.70
2022-07-28T07:26:10.736Z,5.72
2022-07-28T07:28:41.943Z,5.35
2022-07-28T07:31:10.929Z,4.80
2022-07-28T07:33:39.873Z,4.55
2022-07-28T07:36:08.734Z,4.25
2022-07-28T07:38:37.749Z,4.38
2022-07-28T07:41:06.595Z,5.65
2022-07-28T07:43:35.627Z,6.13
2022-07-28T07:46:07.609Z,5.00
2022-07-28T07:48:36.387Z,5.20
2022-07-28T07:51:06.034Z,4.63
2022-07-28T07:53:34.774Z,5.25
2022-07-28T07:56:03.598Z,4.82
2022-07-28T07:58:32.530Z,5.40
2022-07-28T08:01:01.444Z,4.82
2022-07-28T08:03:31.525Z,5.53
2022-07-28T08:06:01.548Z,4.97
2022-07-28T08:08:30.197Z,4.35
2022-07-28T08:10:58.889Z,4.75
2022-07-28T08:13:27.610Z,5.00
2022-07-28T08:15:56.385Z,4.47
2022-07-28T08:18:26.161Z,4.90
2022-07-28T08:20:56.309Z,5.32
2022-07-28T08:23:26.410Z,4.40
2022-07-28T08:25:55.671Z,16.83
2022-07-28T08:28:24.449Z,5.75
2022-07-28T08:30:53.645Z,4.53
2022-07-28T08:33:22.392Z,5.15
2022-07-28T08:35:51.496Z,5.28
2022-07-28T08:38:21.571Z,4.88
2022-07-28T08:40:53.016Z,4.50
2022-07-28T08:43:33.757Z,4.80
2022-07-28T08:46:04.853Z,5.10
2022-07-28T08:48:36.837Z,5.00
2022-07-28T08:51:09.515Z,4.50
2022-07-28T08:53:42.063Z,4.43
2022-07-28T08:56:30.143Z,4.57
2022-07-28T08:59:00.074Z,5.30
2022-07-28T09:01:38.797Z,4.90
2022-07-28T09:04:09.561Z,6.35
2022-07-28T09:06:42.271Z,4.88
2022-07-28T09:09:12.548Z,3.95
2022-07-28T09:11:41.651Z,3.72
2022-07-28T09:14:10.488Z,3.95
2022-07-28T09:16:40.690Z,3.53
2022-07-28T09:19:09.378Z,3.83
2022-07-28T09:21:38.643Z,4.03
2022-07-28T09:24:08.565Z,5.32
2022-07-28T09:26:38.790Z,4.25
2022-07-28T09:29:08.645Z,5.00
2022-07-28T09:31:57.051Z,4.57
2022-07-28T09:34:26.656Z,4.35
2022-07-28T09:36:55.642Z,3.67
2022-07-28T09:39:34.525Z,4.40
2022-07-28T09:42:05.149Z,4.40
2022-07-28T09:44:33.847Z,4.53
2022-07-28T09:47:02.827Z,3.97
2022-07-28T09:49:44.959Z,4.47
2022-07-28T09:52:14.135Z,4.65
2022-07-28T09:55:02.181Z,4.25
2022-07-28T09:57:34.301Z,4.60
2022-07-28T10:00:10.050Z,4.53
2022-07-28T10:02:40.842Z,4.22
2022-07-28T10:05:10.638Z,4.22
2022-07-28T10:07:51.268Z,4.13
2022-07-28T10:10:23.012Z,4.55
2022-07-28T10:13:06.238Z,4.13
2022-07-28T10:15:52.476Z,3.40
2022-07-28T10:18:21.382Z,3.80
2022-07-28T10:20:51.368Z,4.13
2022-07-28T10:23:21.908Z,3.38
2022-07-28T10:25:53.268Z,3.65
2022-07-28T10:28:24.437Z,3.55
2022-07-28T10:30:58.850Z,3.85
2022-07-28T10:33:32.964Z,4.10
2022-07-28T10:36:03.647Z,4.00
2022-07-28T10:38:37.560Z,4.47
2022-07-28T10:41:10.070Z,3.42
2022-07-28T10:43:45.417Z,3.38
2022-07-28T10:46:16.886Z,3.40
2022-07-28T10:48:46.619Z,3.97
2022-07-28T10:51:16.395Z,3.30
2022-07-28T10:53:54.617Z,3.42
2022-07-28T10:56:39.985Z,3.80
2022-07-28T10:59:30.758Z,4.20
2022-07-28T11:01:59.771Z,3.78
2022-07-28T11:04:55.586Z,3.60
2022-07-28T11:07:24.475Z,2.63
2022-07-28T11:09:55.066Z,2.72
2022-07-28T11:12:49.545Z,2.40
2022-07-28T11:15:32.763Z,2.65
2022-07-28T11:18:08.736Z,2.65
2022-07-28T11:21:09.220Z,4.45
2022-07-28T11:23:55.143Z,3.90
2022-07-28T11:26:38.084Z,4.10
2022-07-28T11:29:23.355Z,3.95
2022-07-28T11:32:04.733Z,5.72
2022-07-28T11:35:19.684Z,4.30
2022-07-28T11:38:14.337Z,4.35
2022-07-28T11:40:45.322Z,4.07
2022-07-28T11:43:36.312Z,4.32
2022-07-28T11:46:38.404Z,3.80
2022-07-28T11:49:27.863Z,5.20
2022-07-28T11:52:21.553Z,3.25
2022-07-28T11:55:02.402Z,3.75
2022-07-28T11:57:39.953Z,3.63
2022-07-28T12:00:10.568Z,3.50
2022-07-28T12:02:42.189Z,3.70
2022-07-28T12:05:15.475Z,3.22
2022-07-28T12:07:49.550Z,3.50
2022-07-28T12:13:32.759Z,3.75
2022-07-28T12:16:01.518Z,3.20
2022-07-28T12:18:30.619Z,3.30
2022-07-28T12:21:05.121Z,3.53
2022-07-28T12:23:45.613Z,3.10
2022-07-28T12:26:40.641Z,3.40
2022-07-28T12:29:13.621Z,4.20
2022-07-28T12:31:55.782Z,3.78
2022-07-28T12:34:28.874Z,3.28
2022-07-28T12:37:03.148Z,4.25
2022-07-28T12:39:34.640Z,3.42
2022-07-28T12:42:05.883Z,3.97
2022-07-28T12:44:40.446Z,3.88
2022-07-28T12:47:12.288Z,3.97
2022-07-28T12:49:44.577Z,4.25
2022-07-28T12:52:21.410Z,4.05
2022-07-28T12:54:54.893Z,4.13
2022-07-28T12:57:47.951Z,3.88
2022-07-28T13:00:20.344Z,4.40
2022-07-28T13:02:50.674Z,4.18
2022-07-28T13:05:55.458Z,3.83
2022-07-28T13:08:29.441Z,3.95
2022-07-28T13:10:59.311Z,3.38
2022-07-28T13:13:29.212Z,3.38
2022-07-28T13:16:15.633Z,4.28
2022-07-28T13:18:46.559Z,3.72
2022-07-28T13:21:16.765Z,3.88
2022-07-28T13:23:46.871Z,3.60
2022-07-28T13:26:15.597Z,3.65
2022-07-28T13:28:44.271Z,3.58
2022-07-28T13:31:13.029Z,3.40
2022-07-28T13:33:42.118Z,3.38
2022-07-28T13:36:11.004Z,3.72
2022-07-28T13:38:39.692Z,3.30
2022-07-28T13:41:09.768Z,3.35
2022-07-28T13:43:38.802Z,3.45
2022-07-28T13:46:07.624Z,3.08
2022-07-28T13:48:57.402Z,3.40
2022-07-28T13:51:27.069Z,3.75
2022-07-28T13:53:56.513Z,3.53
2022-07-28T13:56:27.138Z,2.97
2022-07-28T13:58:55.807Z,2.97
2022-07-28T14:01:24.546Z,2.80
2022-07-28T14:03:58.371Z,2.75
2022-07-28T14:06:27.475Z,3.03
2022-07-28T14:08:57.133Z,2.97
2022-07-28T14:11:27.497Z,2.78
2022-07-28T14:13:56.228Z,2.33
2022-07-28T14:16:26.007Z,2.58
2022-07-28T14:18:54.773Z,3.00
2022-07-28T14:21:23.810Z,3.03
2022-07-28T14:23:53.002Z,2.83
2022-07-28T14:26:35.368Z,3.30
2022-07-28T14:29:11.214Z,2.25
2022-07-28T14:31:41.253Z,2.33
2022-07-28T14:34:10.309Z,2.47
2022-07-28T14:36:39.569Z,2.03
2022-07-28T14:39:12.401Z,2.17
2022-07-28T14:41:42.805Z,2.03
2022-07-28T14:44:20.574Z,2.20
2022-07-28T14:46:53.679Z,3.17
2022-07-28T14:49:22.651Z,2.70
2022-07-28T14:51:51.838Z,3.22
2022-07-28T14:54:20.824Z,3.35
2022-07-28T14:56:49.579Z,2.38
2022-07-28T14:59:19.848Z,2.47
2022-07-28T15:01:49.106Z,2.22
2022-07-28T15:04:18.573Z,3.50
2022-07-28T15:06:48.157Z,3.03
2022-07-28T15:09:16.952Z,2.42
2022-07-28T15:11:47.431Z,2.20
2022-07-28T15:14:17.036Z,2.63
2022-07-28T15:16:51.725Z,8.13
2022-07-28T15:19:20.873Z,3.67
2022-07-28T15:21:49.692Z,2.85
2022-07-28T15:24:19.502Z,3.70
2022-07-28T15:26:48.246Z,3.17
2022-07-28T15:29:16.998Z,2.65
2022-07-28T15:31:47.330Z,2.80
2022-07-28T15:34:18.747Z,2.88
2022-07-28T15:36:47.849Z,2.53
2022-07-28T15:39:16.629Z,2.42
2022-07-28T15:41:47.689Z,3.75
2022-07-28T15:44:17.490Z,2.80
2022-07-28T15:46:54.939Z,2.50
2022-07-28T15:49:27.440Z,2.22
2022-07-28T15:51:57.848Z,2.25
2022-07-28T15:54:26.704Z,2.55
2022-07-28T15:56:56.140Z,4.95
2022-07-28T15:59:25.555Z,4.95
2022-07-28T16:01:54.845Z,3.03
2022-07-28T16:04:25.124Z,2.80
2022-07-28T16:07:11.254Z,2.60
2022-07-28T16:09:46.622Z,2.67
2022-07-28T16:12:15.822Z,3.28
2022-07-28T16:14:44.554Z,2.50
2022-07-28T16:17:13.297Z,2.83
2022-07-28T16:19:49.446Z,2.40
2022-07-28T16:22:19.966Z,2.65
2022-07-28T16:24:49.447Z,2.58
2022-07-28T16:27:18.337Z,3.42
2022-07-28T16:29:49.579Z,2.70
2022-07-28T16:32:18.487Z,3.17
2022-07-28T16:34:49.754Z,2.60
2022-07-28T16:37:19.711Z,2.75
2022-07-28T16:39:50.060Z,2.63
2022-07-28T16:42:18.879Z,2.50
2022-07-28T16:44:48.202Z,2.67
2022-07-28T16:47:17.437Z,3.20
2022-07-28T16:49:46.493Z,2.97
2022-07-28T16:52:17.378Z,3.03
2022-07-28T16:54:46.240Z,3.35
2022-07-28T16:57:16.550Z,3.42
2022-07-28T16:59:48.375Z,4.10
2022-07-28T17:02:19.394Z,4.00
2022-07-28T17:04:48.904Z,3.85
2022-07-28T17:07:19.693Z,3.20
2022-07-28T17:09:48.383Z,3.20
2022-07-28T17:12:17.224Z,4.07
2022-07-28T17:14:46.200Z,4.15
2022-07-28T17:17:15.036Z,5.32
2022-07-28T17:19:46.716Z,4.90
2022-07-28T17:22:16.219Z,4.47
2022-07-28T17:24:48.438Z,4.40
2022-07-28T17:27:37.745Z,3.92
2022-07-28T17:30:07.800Z,3.05
2022-07-28T17:32:36.546Z,3.03
2022-07-28T17:35:06.482Z,3.85
2022-07-28T17:37:35.416Z,5.65
2022-07-28T17:40:07.412Z,6.10
2022-07-28T17:42:36.303Z,5.28
2022-07-28T17:45:05.498Z,4.60
2022-07-28T17:47:36.039Z,3.65
2022-07-28T17:50:07.444Z,3.95
2022-07-28T17:52:36.511Z,3.55
2022-07-28T17:55:25.200Z,3.35
2022-07-28T17:57:56.678Z,3.75
2022-07-28T18:00:25.606Z,3.55
2022-07-28T18:02:54.293Z,5.75
2022-07-28T18:05:23.097Z,4.50
2022-07-28T18:07:54.796Z,3.95
2022-07-28T18:10:27.729Z,4.13
2022-07-28T18:12:56.396Z,3.97
2022-07-28T18:15:26.004Z,6.95
2022-07-28T18:17:56.109Z,7.18
2022-07-28T18:20:25.541Z,5.13
2022-07-28T18:22:54.237Z,3.83
2022-07-28T18:25:22.898Z,4.40
2022-07-28T18:27:53.887Z,8.85
2022-07-28T18:30:23.248Z,5.28
2022-07-28T18:32:52.434Z,3.35
2022-07-28T18:35:22.593Z,3.15
2022-07-28T18:37:52.024Z,3.55
2022-07-28T18:40:22.059Z,4.30
2022-07-28T18:42:53.041Z,3.30
2022-07-28T18:45:22.034Z,2.97
2022-07-28T18:47:50.833Z,3.90
2022-07-28T18:50:30.276Z,3.53
2022-07-28T18:53:01.091Z,2.75
2022-07-28T18:55:30.106Z,2.95
2022-07-28T18:58:00.161Z,2.83
2022-07-28T19:00:29.037Z,2.60
2022-07-28T19:02:57.808Z,2.80
2022-07-28T19:05:26.879Z,2.70
2022-07-28T19:08:05.796Z,2.85
2022-07-28T19:10:34.738Z,3.58
2022-07-28T19:13:05.658Z,2.80
2022-07-28T19:15:41.419Z,2.80
2022-07-28T19:18:12.080Z,2.85
2022-07-28T19:20:41.716Z,3.05
2022-07-28T19:23:10.401Z,3.15
2022-07-28T19:25:40.545Z,2.60
2022-07-28T19:28:11.811Z,2.70
2022-07-28T19:30:40.612Z,3.35
2022-07-28T19:33:09.812Z,2.72
2022-07-28T19:35:39.648Z,2.92
2022-07-28T19:38:08.443Z,3.05
2022-07-28T19:40:38.398Z,13.43
2022-07-28T19:43:07.527Z,19.38
2022-07-28T19:45:40.724Z,6.30
2022-07-28T19:48:10.097Z,3.78
2022-07-28T19:50:39.062Z,4.65
2022-07-28T19:53:13.187Z,5.65
2022-07-28T19:55:45.608Z,6.00
2022-07-28T19:58:19.935Z,7.22
2022-07-28T20:00:51.203Z,7.50
2022-07-28T20:03:59.983Z,12.82
2022-07-28T20:06:10.282Z,7.00
2022-07-28T20:08:39.444Z,4.15
2022-07-28T20:11:08.850Z,3.10
2022-07-28T20:13:38.400Z,3.60
2022-07-28T20:16:09.377Z,4.93
2022-07-28T20:18:38.281Z,4.50
2022-07-28T20:21:07.329Z,4.65
2022-07-28T20:23:38.636Z,4.10
2022-07-28T20:26:07.562Z,4.10
2022-07-28T20:28:36.519Z,4.93
2022-07-28T20:31:05.441Z,3.75
2022-07-28T20:33:35.584Z,3.67
2022-07-28T20:36:05.178Z,3.63
2022-07-28T20:38:33.913Z,3.33
2022-07-28T20:41:02.577Z,3.33
2022-07-28T20:43:36.353Z,3.67
2022-07-28T20:46:06.765Z,3.42
2022-07-28T20:48:37.284Z,3.33
2022-07-28T20:51:06.163Z,3.00
2022-07-28T20:53:35.147Z,3.53
2022-07-28T20:56:03.889Z,3.30
2022-07-28T20:58:32.678Z,3.28
2022-07-28T21:01:03.566Z,3.60
2022-07-28T21:03:32.451Z,3.40
2022-07-28T21:06:02.644Z,3.72
2022-07-28T21:08:31.712Z,3.33
2022-07-28T21:11:00.778Z,3.42
2022-07-28T21:13:32.012Z,3.90
2022-07-28T21:16:01.179Z,4.57
2022-07-28T21:18:30.621Z,4.22
2022-07-28T21:21:01.426Z,3.65
2022-07-28T21:23:30.308Z,3.22
2022-07-28T21:25:59.082Z,3.53
2022-07-28T21:28:45.687Z,3.47
2022-07-28T21:31:14.659Z,4.22
2022-07-28T21:33:43.551Z,5.50
2022-07-28T21:36:14.164Z,4.00
2022-07-28T21:38:43.040Z,3.80
2022-07-28T21:41:11.900Z,4.20
2022-07-28T21:43:40.980Z,3.90
2022-07-28T21:46:09.769Z,5.32
2022-07-28T21:48:38.948Z,4.22
2022-07-28T21:51:18.204Z,5.10
2022-07-28T21:53:52.185Z,5.97
2022-07-28T21:56:21.627Z,5.43
2022-07-28T21:58:51.164Z,5.38
2022-07-28T22:01:20.207Z,4.65
2022-07-28T22:03:49.341Z,6.40
2022-07-28T22:06:18.583Z,7.05
2022-07-28T22:08:50.215Z,7.05
2022-07-28T22:11:20.708Z,6.57
2022-07-28T22:13:49.396Z,4.88
2022-07-28T22:16:19.008Z,6.30
2022-07-28T22:18:47.751Z,6.55
2022-07-28T22:21:16.735Z,8.07
2022-07-28T22:23:46.294Z,6.68
2022-07-28T22:26:15.239Z,7.35
2022-07-28T22:28:45.675Z,8.13
2022-07-28T22:31:15.173Z,7.57
2022-07-28T22:33:43.947Z,8.05
2022-07-28T22:36:12.819Z,7.82
2022-07-28T22:38:41.577Z,8.30
2022-07-28T22:41:10.795Z,7.32
2022-07-28T22:43:39.469Z,8.02
2022-07-28T22:46:11.480Z,7.18
2022-07-28T22:48:40.622Z,8.10
2022-07-28T22:51:12.332Z,6.88
2022-07-28T22:53:42.371Z,6.53
2022-07-28T22:58:58.455Z,7.43
2022-07-28T23:01:28.766Z,7.95
2022-07-28T23:03:57.968Z,7.55
2022-07-28T23:06:27.175Z,7.40
2022-07-28T23:08:55.995Z,4.35
2022-07-28T23:11:24.710Z,6.22
2022-07-28T23:13:53.513Z,7.30
2022-07-28T23:16:22.306Z,7.95
2022-07-28T23:18:52.505Z,5.63
2022-07-28T23:21:21.849Z,4.05
2022-07-28T23:23:50.664Z,5.38
2022-07-28T23:26:19.587Z,4.05
2022-07-28T23:28:48.329Z,3.72
2022-07-28T23:31:17.232Z,4.70
2022-07-28T23:33:55.773Z,4.97
2022-07-28T23:36:28.113Z,7.35
2022-07-28T23:38:58.737Z,5.70
2022-07-28T23:41:28.401Z,5.60
2022-07-28T23:43:57.182Z,6.85
2022-07-28T23:46:26.288Z,7.40
2022-07-28T23:48:55.123Z,8.05
2022-07-28T23:51:39.241Z,5.03
2022-07-28T23:54:14.265Z,5.97
2022-07-28T23:56:44.276Z,7.80
2022-07-28T23:59:14.388Z,6.65
